Time;durP1;ratioP1;P1;durP2;ratioP2;P2;SDS_P1;SDS_P2;PMS_P1;PMS_P2;Temp;Humidity;BMP_temperature;BMP_pressure;BME280_temperature;BME280_humidity;BME280_pressure;Samples;Min_cycle;Max_cycle;Signal;HPM_P1;HPM_P2
2024/01/11 00:01:46;;;;;;;12.00;8.13;;;;;;;;;;6287074;28;20147;-76
2024/01/11 00:04:49;;;;;;;11.38;7.40;;;;;;;;;;6258895;28;20051;-76
2024/01/11 00:07:52;;;;;;;13.60;6.95;;;;;;;;;;6301928;28;20040;-73
2024/01/11 00:10:54;;;;;;;13.82;6.80;;;;;;;;;;6264145;28;20048;-74
2024/01/11 00:13:58;;;;;;;12.68;7.05;;;;;;;;;;6276773;28;20041;-74
2024/01/11 00:17:00;;;;;;;18.58;7.55;;;;;;;;;;6279893;28;20053;-73
2024/01/11 00:20:03;;;;;;;8.98;7.57;;;;;;;;;;6286051;28;20041;-74
2024/01/11 00:23:05;;;;;;;10.82;6.85;;;;;;;;;;6301241;28;20044;-74
2024/01/11 00:26:07;;;;;;;10.43;5.78;;;;;;;;;;6237289;28;20036;-74
2024/01/11 00:29:11;;;;;;;7.38;6.53;;;;;;;;;;6269845;28;20167;-73
2024/01/11 00:32:13;;;;;;;10.48;7.50;;;;;;;;;;6260977;28;20052;-76
2024/01/11 00:35:15;;;;;;;13.60;8.90;;;;;;;;;;6289644;28;20147;-76
2024/01/11 00:38:18;;;;;;;12.65;8.45;;;;;;;;;;6296696;28;20044;-76
2024/01/11 00:41:20;;;;;;;11.90;10.15;;;;;;;;;;6276574;28;20036;-74
2024/01/11 00:44:23;;;;;;;11.75;6.72;;;;;;;;;;6261707;28;20044;-74
2024/01/11 00:47:25;;;;;;;10.88;7.75;;;;;;;;;;6310567;28;20056;-75
2024/01/11 00:50:27;;;;;;;12.55;8.55;;;;;;;;;;6251062;28;20055;-74
2024/01/11 00:53:30;;;;;;;9.45;6.65;;;;;;;;;;6275409;28;20076;-74
2024/01/11 00:56:33;;;;;;;12.30;8.10;;;;;;;;;;6276171;28;20554;-74
2024/01/11 00:59:40;;;;;;;10.75;6.20;;;;;;;;;;6293736;28;20139;-74
2024/01/11 01:02:42;;;;;;;9.32;6.57;;;;;;;;;;6283495;28;20123;-74
2024/01/11 01:05:45;;;;;;;12.30;5.30;;;;;;;;;;6281125;28;20059;-74
2024/01/11 01:08:47;;;;;;;7.82;4.82;;;;;;;;;;6298381;28;20044;-74
2024/01/11 01:11:50;;;;;;;10.80;4.25;;;;;;;;;;6258759;28;20047;-74
2024/01/11 01:14:52;;;;;;;5.53;4.28;;;;;;;;;;6292070;28;20551;-75
2024/01/11 01:17:54;;;;;;;12.68;6.65;;;;;;;;;;6235469;28;20051;-74
2024/01/11 01:20:57;;;;;;;7.95;4.03;;;;;;;;;;6269929;28;20059;-75
2024/01/11 01:23:59;;;;;;;7.28;5.55;;;;;;;;;;6277172;28;20048;-75
2024/01/11 01:27:01;;;;;;;7.65;4.63;;;;;;;;;;6292137;28;20052;-75
2024/01/11 01:30:04;;;;;;;10.85;7.38;;;;;;;;;;6269382;28;20493;-74
2024/01/11 01:33:07;;;;;;;6.85;4.38;;;;;;;;;;6263803;28;20095;-75
2024/01/11 01:36:13;;;;;;;7.13;5.03;;;;;;;;;;6275695;28;20040;-75
2024/01/11 01:39:15;;;;;;;8.32;5.40;;;;;;;;;;6257011;28;20049;-74
2024/01/11 01:42:18;;;;;;;11.13;6.38;;;;;;;;;;6256555;28;20044;-75
2024/01/11 01:45:21;;;;;;;8.98;4.22;;;;;;;;;;6268041;28;20098;-75
2024/01/11 01:48:23;;;;;;;7.38;5.22;;;;;;;;;;6261051;28;20982;-75
2024/01/11 01:51:29;;;;;;;14.75;7.20;;;;;;;;;;6280950;28;20043;-75
2024/01/11 01:54:33;;;;;;;13.07;8.30;;;;;;;;;;6261304;28;20040;-75
2024/01/11 01:57:36;;;;;;;10.38;5.15;;;;;;;;;;6303882;28;20044;-75
2024/01/11 02:00:41;;;;;;;11.60;7.57;;;;;;;;;;6269214;28;20064;-75
2024/01/11 02:03:45;;;;;;;6.25;5.20;;;;;;;;;;6273132;28;20048;-76
2024/01/11 02:06:48;;;;;;;5.93;3.88;;;;;;;;;;6294490;28;20101;-76
2024/01/11 02:09:53;;;;;;;6.53;5.15;;;;;;;;;;6247073;28;20885;-75
2024/01/11 02:12:55;;;;;;;7.22;4.30;;;;;;;;;;6241023;28;20055;-75
2024/01/11 02:15:57;;;;;;;9.05;4.82;;;;;;;;;;6284360;28;20029;-75
2024/01/11 02:19:00;;;;;;;4.40;3.88;;;;;;;;;;6261747;28;20044;-75
2024/01/11 02:22:21;;;;;;;5.72;3.60;;;;;;;;;;6284702;28;20040;-76
2024/01/11 02:25:23;;;;;;;8.95;4.30;;;;;;;;;;6247381;28;20041;-75
2024/01/11 02:28:25;;;;;;;7.55;4.75;;;;;;;;;;6279308;28;20135;-75
2024/01/11 02:31:28;;;;;;;7.75;4.43;;;;;;;;;;6291614;28;20121;-75
2024/01/11 02:34:30;;;;;;;5.10;3.40;;;;;;;;;;6291609;28;20067;-75
2024/01/11 02:37:32;;;;;;;5.68;5.18;;;;;;;;;;6254369;28;20063;-75
2024/01/11 02:40:37;;;;;;;9.13;4.28;;;;;;;;;;6297352;28;20055;-75
2024/01/11 02:43:39;;;;;;;6.45;4.10;;;;;;;;;;6264851;28;20047;-75
2024/01/11 02:46:41;;;;;;;6.78;4.82;;;;;;;;;;6293226;28;20820;-75
2024/01/11 02:49:43;;;;;;;6.53;4.65;;;;;;;;;;6292550;28;20604;-74
2024/01/11 02:52:46;;;;;;;6.03;3.92;;;;;;;;;;6294306;28;20063;-75
2024/01/11 02:55:52;;;;;;;9.02;4.90;;;;;;;;;;6262651;28;20072;-77
2024/01/11 02:58:54;;;;;;;4.10;3.55;;;;;;;;;;6277492;28;20041;-74
2024/01/11 03:01:56;;;;;;;5.35;4.70;;;;;;;;;;6264327;28;20127;-74
2024/01/11 03:04:58;;;;;;;6.13;3.92;;;;;;;;;;6288233;28;20064;-74
2024/01/11 03:08:00;;;;;;;4.13;3.72;;;;;;;;;;6274270;28;20051;-75
2024/01/11 03:11:02;;;;;;;7.07;4.43;;;;;;;;;;6283670;28;20131;-74
2024/01/11 03:14:05;;;;;;;4.88;3.35;;;;;;;;;;6273626;28;20044;-75
2024/01/11 03:17:07;;;;;;;4.53;3.90;;;;;;;;;;6263557;28;20726;-74
2024/01/11 03:20:10;;;;;;;4.55;3.22;;;;;;;;;;6284629;28;20183;-74
2024/01/11 03:23:12;;;;;;;6.18;3.30;;;;;;;;;;6302384;28;20047;-74
2024/01/11 03:26:16;;;;;;;5.68;3.55;;;;;;;;;;6276754;28;20504;-75
2024/01/11 03:29:20;;;;;;;5.80;4.55;;;;;;;;;;6261406;28;20048;-74
2024/01/11 03:32:23;;;;;;;4.88;3.63;;;;;;;;;;6292903;28;20096;-74
2024/01/11 03:35:25;;;;;;;7.93;5.05;;;;;;;;;;6293038;28;20895;-74
2024/01/11 03:38:27;;;;;;;8.52;4.53;;;;;;;;;;6264960;28;20041;-74
2024/01/11 03:41:29;;;;;;;6.43;4.53;;;;;;;;;;6291079;28;20125;-74
2024/01/11 03:44:36;;;;;;;7.93;5.25;;;;;;;;;;6294196;28;20097;-76
2024/01/11 03:47:42;;;;;;;3.65;3.17;;;;;;;;;;6284406;28;20040;-76
2024/01/11 03:50:44;;;;;;;6.15;4.07;;;;;;;;;;6298972;28;20638;-76
2024/01/11 03:53:46;;;;;;;11.27;5.55;;;;;;;;;;6288073;28;20051;-75
2024/01/11 03:56:49;;;;;;;7.55;4.38;;;;;;;;;;6295612;28;20064;-74
2024/01/11 03:59:51;;;;;;;2.80;2.08;;;;;;;;;;6296446;28;20123;-76
2024/01/11 04:02:54;;;;;;;4.82;4.20;;;;;;;;;;6275668;28;20076;-76
2024/01/11 04:05:56;;;;;;;3.08;2.80;;;;;;;;;;6293853;28;20044;-76
2024/01/11 04:08:59;;;;;;;4.70;4.18;;;;;;;;;;6248703;28;20102;-76
2024/01/11 04:12:01;;;;;;;5.32;3.97;;;;;;;;;;6260152;28;20044;-76
2024/01/11 04:15:03;;;;;;;3.90;3.05;;;;;;;;;;6292711;28;20079;-76
2024/01/11 04:18:05;;;;;;;8.93;5.50;;;;;;;;;;6297247;28;20052;-76
2024/01/11 04:21:21;;;;;;;8.23;6.00;;;;;;;;;;6290922;28;20044;-76
2024/01/11 04:24:23;;;;;;;11.18;5.53;;;;;;;;;;6278763;28;20051;-75
2024/01/11 04:27:25;;;;;;;10.85;6.63;;;;;;;;;;6280827;28;20087;-76
2024/01/11 04:30:27;;;;;;;10.32;5.55;;;;;;;;;;6282940;28;20082;-76
2024/01/11 04:33:29;;;;;;;10.55;5.25;;;;;;;;;;6272079;28;20076;-77
2024/01/11 04:36:31;;;;;;;6.75;4.80;;;;;;;;;;6270349;28;20551;-76
2024/01/11 04:39:34;;;;;;;4.45;2.70;;;;;;;;;;6297599;28;20151;-76
2024/01/11 04:42:37;;;;;;;5.85;3.50;;;;;;;;;;6309676;28;20089;-75
2024/01/11 04:45:39;;;;;;;10.45;4.25;;;;;;;;;;6290564;28;20040;-74
2024/01/11 04:48:41;;;;;;;6.22;4.10;;;;;;;;;;6265266;28;20100;-74
2024/01/11 04:51:44;;;;;;;9.60;4.97;;;;;;;;;;6278705;28;20171;-74
2024/01/11 04:54:47;;;;;;;6.80;5.13;;;;;;;;;;6272011;28;20058;-74
2024/01/11 04:57:49;;;;;;;10.63;7.13;;;;;;;;;;6294230;28;20040;-74
2024/01/11 05:00:52;;;;;;;11.75;4.85;;;;;;;;;;6273506;28;20040;-74
2024/01/11 05:03:54;;;;;;;7.88;5.50;;;;;;;;;;6258205;28;20045;-74
2024/01/11 05:06:56;;;;;;;6.90;5.30;;;;;;;;;;6268120;28;20078;-74
2024/01/11 05:09:58;;;;;;;9.63;5.40;;;;;;;;;;6294492;28;20052;-74
2024/01/11 05:13:00;;;;;;;6.80;5.28;;;;;;;;;;6281467;28;20071;-74
2024/01/11 05:16:03;;;;;;;7.40;5.15;;;;;;;;;;6269944;28;20044;-74
2024/01/11 05:19:05;;;;;;;10.55;8.00;;;;;;;;;;6264991;28;20463;-75
2024/01/11 05:22:08;;;;;;;9.68;6.85;;;;;;;;;;6265386;28;20131;-75
2024/01/11 05:25:10;;;;;;;12.88;5.60;;;;;;;;;;6254137;28;20194;-75
2024/01/11 05:28:12;;;;;;;5.68;3.63;;;;;;;;;;6256548;28;20055;-75
2024/01/11 05:31:15;;;;;;;5.68;4.78;;;;;;;;;;6284608;28;20044;-76
2024/01/11 05:34:19;;;;;;;9.68;6.60;;;;;;;;;;6269279;28;20094;-75
2024/01/11 05:37:22;;;;;;;11.27;7.25;;;;;;;;;;6260779;28;20093;-75
2024/01/11 05:40:25;;;;;;;5.65;4.95;;;;;;;;;;6278671;28;20162;-76
2024/01/11 05:43:27;;;;;;;8.50;5.90;;;;;;;;;;6255687;28;20076;-75
2024/01/11 05:46:29;;;;;;;4.78;4.35;;;;;;;;;;6265819;28;20040;-76
2024/01/11 05:49:35;;;;;;;9.98;4.72;;;;;;;;;;6292941;28;20787;-75
2024/01/11 05:52:37;;;;;;;10.18;4.47;;;;;;;;;;6274904;28;20048;-76
2024/01/11 05:55:40;;;;;;;10.02;5.47;;;;;;;;;;6256350;28;20872;-75
2024/01/11 05:58:43;;;;;;;5.40;4.78;;;;;;;;;;6252085;28;20068;-74
2024/01/11 06:01:46;;;;;;;6.10;4.53;;;;;;;;;;6283801;28;20052;-76
2024/01/11 06:04:49;;;;;;;13.75;7.47;;;;;;;;;;6270971;28;20071;-76
2024/01/11 06:07:51;;;;;;;4.88;3.35;;;;;;;;;;6301258;28;20060;-75
2024/01/11 06:10:53;;;;;;;7.68;4.30;;;;;;;;;;6287236;28;20762;-79
2024/01/11 06:13:57;;;;;;;6.82;6.22;;;;;;;;;;6277707;28;20147;-75
2024/01/11 06:16:59;;;;;;;10.13;5.53;;;;;;;;;;6284649;28;20047;-77
2024/01/11 06:20:01;;;;;;;11.82;6.05;;;;;;;;;;6271040;28;20073;-75
2024/01/11 06:23:05;;;;;;;6.32;5.35;;;;;;;;;;6266719;28;20052;-75
2024/01/11 06:26:08;;;;;;;7.30;4.82;;;;;;;;;;6269836;28;20086;-76
2024/01/11 06:29:11;;;;;;;9.00;5.95;;;;;;;;;;6270705;28;20566;-76
2024/01/11 06:32:13;;;;;;;12.95;8.45;;;;;;;;;;6286184;28;20048;-76
2024/01/11 06:35:15;;;;;;;8.45;5.75;;;;;;;;;;6267905;28;20139;-76
2024/01/11 06:38:17;;;;;;;6.95;5.75;;;;;;;;;;6279146;28;20052;-76
2024/01/11 06:41:19;;;;;;;8.90;6.25;;;;;;;;;;6273594;28;20060;-75
2024/01/11 06:44:22;;;;;;;12.48;5.88;;;;;;;;;;6253336;28;20801;-76
2024/01/11 06:47:25;;;;;;;14.23;7.38;;;;;;;;;;6298529;28;20553;-76
2024/01/11 06:50:28;;;;;;;14.45;9.82;;;;;;;;;;6262124;28;20056;-76
2024/01/11 06:53:30;;;;;;;16.90;9.70;;;;;;;;;;6293658;28;20554;-76
2024/01/11 06:56:35;;;;;;;15.80;10.48;;;;;;;;;;6291056;28;20763;-76
2024/01/11 06:59:38;;;;;;;22.75;13.50;;;;;;;;;;6279537;28;20082;-75
2024/01/11 07:02:41;;;;;;;20.33;12.88;;;;;;;;;;6276164;28;20091;-76
2024/01/11 07:05:43;;;;;;;11.00;7.32;;;;;;;;;;6269496;28;20107;-76
2024/01/11 07:08:45;;;;;;;14.50;8.80;;;;;;;;;;6243769;28;20052;-76
2024/01/11 07:11:48;;;;;;;13.27;8.18;;;;;;;;;;6272658;28;20446;-76
2024/01/11 07:14:51;;;;;;;18.05;11.48;;;;;;;;;;6295652;28;20123;-76
2024/01/11 07:17:55;;;;;;;19.08;12.02;;;;;;;;;;6274050;28;20177;-75
2024/01/11 07:20:59;;;;;;;21.20;12.60;;;;;;;;;;6291134;28;20049;-75
2024/01/11 07:24:01;;;;;;;13.73;8.35;;;;;;;;;;6250821;28;20040;-76
2024/01/11 07:27:05;;;;;;;25.33;12.13;;;;;;;;;;6266039;28;20080;-76
2024/01/11 07:30:08;;;;;;;17.65;9.43;;;;;;;;;;6295399;28;20110;-75
2024/01/11 07:33:10;;;;;;;16.55;8.75;;;;;;;;;;6291985;28;20051;-76
2024/01/11 07:36:13;;;;;;;13.63;8.20;;;;;;;;;;6275397;28;20048;-76
2024/01/11 07:39:15;;;;;;;22.70;12.13;;;;;;;;;;6280642;28;20071;-74
2024/01/11 07:42:19;;;;;;;31.08;21.02;;;;;;;;;;6282971;28;20818;-78
2024/01/11 07:45:22;;;;;;;67.85;39.50;;;;;;;;;;6307725;28;20055;-77
2024/01/11 07:48:24;;;;;;;66.05;30.00;;;;;;;;;;6279358;28;20047;-76
2024/01/11 07:51:27;;;;;;;66.40;33.47;;;;;;;;;;6276901;28;20522;-76
2024/01/11 07:54:28;;;;;;;20.77;14.30;;;;;;;;;;6265891;28;20041;-77
2024/01/11 07:57:32;;;;;;;21.08;11.98;;;;;;;;;;6272023;28;20040;-77
2024/01/11 08:00:34;;;;;;;9.93;8.52;;;;;;;;;;6279620;28;20143;-77
2024/01/11 08:03:36;;;;;;;18.58;13.00;;;;;;;;;;6272179;28;20051;-77
2024/01/11 08:06:38;;;;;;;20.40;10.20;;;;;;;;;;6272883;28;20464;-77
2024/01/11 08:09:45;;;;;;;16.98;10.82;;;;;;;;;;6298219;28;20401;-77
2024/01/11 08:12:47;;;;;;;23.48;16.30;;;;;;;;;;6252339;28;20727;-77
2024/01/11 08:15:49;;;;;;;19.50;11.35;;;;;;;;;;6294040;28;20523;-76
2024/01/11 08:18:52;;;;;;;21.05;13.30;;;;;;;;;;6277342;28;20078;-76
2024/01/11 08:21:56;;;;;;;14.60;10.75;;;;;;;;;;6273635;28;20049;-76
2024/01/11 08:24:58;;;;;;;18.35;11.98;;;;;;;;;;6270032;28;20601;-76
2024/01/11 08:28:00;;;;;;;19.00;14.48;;;;;;;;;;6272182;28;20043;-76
2024/01/11 08:31:04;;;;;;;18.67;11.23;;;;;;;;;;6298585;28;20056;-76
2024/01/11 08:34:07;;;;;;;14.70;9.57;;;;;;;;;;6281699;28;20055;-76
2024/01/11 08:37:09;;;;;;;22.10;12.70;;;;;;;;;;6297446;28;20032;-76
2024/01/11 08:40:11;;;;;;;19.23;10.60;;;;;;;;;;6261700;28;20171;-76
2024/01/11 08:43:13;;;;;;;18.38;10.55;;;;;;;;;;6302619;28;20131;-78
2024/01/11 08:46:24;;;;;;;15.13;9.10;;;;;;;;;;6286741;28;20060;-76
2024/01/11 08:49:26;;;;;;;19.42;9.82;;;;;;;;;;6286208;28;20081;-76
2024/01/11 08:52:29;;;;;;;7.47;5.97;;;;;;;;;;6300568;28;20084;-77
2024/01/11 08:55:32;;;;;;;14.90;10.13;;;;;;;;;;6274389;28;20052;-75
2024/01/11 08:58:36;;;;;;;23.27;12.45;;;;;;;;;;6281974;28;20151;-75
2024/01/11 09:01:39;;;;;;;22.75;11.55;;;;;;;;;;6290625;28;20071;-75
2024/01/11 09:04:47;;;;;;;18.48;11.32;;;;;;;;;;6276150;28;20052;-75
2024/01/11 09:07:50;;;;;;;24.35;10.00;;;;;;;;;;6252165;28;20079;-75
2024/01/11 09:10:55;;;;;;;18.05;13.32;;;;;;;;;;6270110;28;20550;-75
2024/01/11 09:13:57;;;;;;;16.67;10.55;;;;;;;;;;6249941;28;20109;-75
2024/01/11 09:17:01;;;;;;;26.63;10.68;;;;;;;;;;6281908;28;20893;-75
2024/01/11 09:20:03;;;;;;;13.13;6.57;;;;;;;;;;6298458;28;20538;-74
2024/01/11 09:23:06;;;;;;;16.30;11.02;;;;;;;;;;6267672;28;20044;-75
2024/01/11 09:26:08;;;;;;;17.77;10.77;;;;;;;;;;6267685;28;20049;-74
2024/01/11 09:29:10;;;;;;;12.38;7.55;;;;;;;;;;6290147;28;20033;-74
2024/01/11 09:32:14;;;;;;;16.40;11.25;;;;;;;;;;6264654;28;20247;-74
2024/01/11 09:35:17;;;;;;;12.85;8.88;;;;;;;;;;6282422;28;20192;-74
2024/01/11 09:38:20;;;;;;;25.50;10.70;;;;;;;;;;6268533;28;20040;-75
2024/01/11 09:41:23;;;;;;;13.75;10.48;;;;;;;;;;6258967;28;20074;-74
2024/01/11 09:44:26;;;;;;;9.10;8.13;;;;;;;;;;6268637;28;20420;-74
2024/01/11 09:47:28;;;;;;;15.65;10.60;;;;;;;;;;6264805;28;20542;-73
2024/01/11 09:50:31;;;;;;;19.45;11.32;;;;;;;;;;6266434;28;20043;-74
2024/01/11 09:53:33;;;;;;;22.88;13.23;;;;;;;;;;6256092;28;20048;-74
2024/01/11 09:56:37;;;;;;;19.90;13.38;;;;;;;;;;6266627;28;20452;-74
2024/01/11 09:59:40;;;;;;;19.33;13.60;;;;;;;;;;6281593;28;20048;-74
2024/01/11 10:02:42;;;;;;;17.67;13.10;;;;;;;;;;6270177;28;20048;-74
2024/01/11 10:05:45;;;;;;;13.90;8.80;;;;;;;;;;6278009;28;20116;-74
2024/01/11 10:08:47;;;;;;;10.75;6.32;;;;;;;;;;6255368;28;20139;-74
2024/01/11 10:11:50;;;;;;;15.27;7.55;;;;;;;;;;6286160;28;20060;-73
2024/01/11 10:14:53;;;;;;;15.07;10.02;;;;;;;;;;6275402;28;20076;-73
2024/01/11 10:17:56;;;;;;;19.83;12.68;;;;;;;;;;6278153;28;20516;-74
2024/01/11 10:20:59;;;;;;;14.00;9.07;;;;;;;;;;6287162;28;20174;-74
2024/01/11 10:24:04;;;;;;;15.95;10.50;;;;;;;;;;6284393;28;20625;-74
2024/01/11 10:27:09;;;;;;;13.52;9.43;;;;;;;;;;6291106;28;20094;-74
2024/01/11 10:30:20;;;;;;;10.30;6.97;;;;;;;;;;6269579;28;20135;-74
2024/01/11 10:33:22;;;;;;;18.50;8.65;;;;;;;;;;6264871;28;20678;-75
2024/01/11 10:36:26;;;;;;;15.27;8.55;;;;;;;;;;6248625;28;20055;-75
2024/01/11 10:39:28;;;;;;;16.95;10.43;;;;;;;;;;6286496;28;20143;-75
2024/01/11 10:42:31;;;;;;;15.60;9.43;;;;;;;;;;6275192;28;20190;-75
2024/01/11 10:45:38;;;;;;;23.08;9.90;;;;;;;;;;6281308;28;20071;-75
2024/01/11 10:48:44;;;;;;;16.33;11.23;;;;;;;;;;6280073;28;20508;-74
2024/01/11 10:51:53;;;;;;;26.48;15.85;;;;;;;;;;6299249;28;20082;-74
2024/01/11 10:54:57;;;;;;;8.60;7.68;;;;;;;;;;6282868;28;20725;-74
2024/01/11 10:58:00;;;;;;;15.23;9.65;;;;;;;;;;6291008;28;20047;-74
2024/01/11 11:01:04;;;;;;;20.42;12.27;;;;;;;;;;6284559;28;20553;-74
2024/01/11 11:04:07;;;;;;;12.88;7.85;;;;;;;;;;6279471;28;20041;-75
2024/01/11 11:07:09;;;;;;;23.73;13.55;;;;;;;;;;6261486;28;20048;-74
2024/01/11 11:10:12;;;;;;;19.08;12.07;;;;;;;;;;6265654;28;20111;-74
2024/01/11 11:13:15;;;;;;;19.10;11.15;;;;;;;;;;6271815;28;20060;-75
2024/01/11 11:16:17;;;;;;;14.43;9.88;;;;;;;;;;6288603;28;20045;-75
2024/01/11 11:19:20;;;;;;;19.08;12.55;;;;;;;;;;6284696;28;20084;-74
2024/01/11 11:22:22;;;;;;;22.15;13.20;;;;;;;;;;6312764;28;20028;-74
2024/01/11 11:25:27;;;;;;;20.08;12.70;;;;;;;;;;6279751;28;20084;-74
2024/01/11 11:28:30;;;;;;;25.65;13.32;;;;;;;;;;6252604;28;20095;-73
2024/01/11 11:31:36;;;;;;;22.67;12.00;;;;;;;;;;6300500;28;20044;-73
2024/01/11 11:34:44;;;;;;;13.65;7.55;;;;;;;;;;6286773;28;20052;-73
2024/01/11 11:37:46;;;;;;;17.77;10.30;;;;;;;;;;6294506;28;20040;-72
2024/01/11 11:40:51;;;;;;;19.17;10.00;;;;;;;;;;6287408;28;20135;-73
2024/01/11 11:43:53;;;;;;;16.25;10.40;;;;;;;;;;6288336;28;20048;-74
2024/01/11 11:46:55;;;;;;;19.65;12.30;;;;;;;;;;6272649;28;20183;-74
2024/01/11 11:50:10;;;;;;;20.38;10.07;;;;;;;;;;6248783;28;20075;-73
2024/01/11 11:53:13;;;;;;;18.80;11.52;;;;;;;;;;6265288;28;20037;-74
2024/01/11 11:56:17;;;;;;;18.23;11.88;;;;;;;;;;6279396;28;20636;-74
2024/01/11 11:59:20;;;;;;;12.10;7.97;;;;;;;;;;6269382;28;20059;-74
2024/01/11 12:02:23;;;;;;;15.05;9.40;;;;;;;;;;6274018;28;20048;-74
2024/01/11 12:05:25;;;;;;;21.65;12.25;;;;;;;;;;6272399;28;20050;-74
2024/01/11 12:08:27;;;;;;;18.05;11.55;;;;;;;;;;6279643;28;20656;-73
2024/01/11 12:11:30;;;;;;;14.45;8.43;;;;;;;;;;6286608;28;20927;-75
2024/01/11 12:14:34;;;;;;;12.93;8.02;;;;;;;;;;6273858;28;20072;-75
2024/01/11 12:17:38;;;;;;;14.55;9.77;;;;;;;;;;6286530;28;20047;-75
2024/01/11 12:20:41;;;;;;;10.95;7.32;;;;;;;;;;6267190;28;20629;-75
2024/01/11 12:23:48;;;;;;;13.05;7.00;;;;;;;;;;6244984;28;20041;-75
2024/01/11 12:26:53;;;;;;;11.57;7.10;;;;;;;;;;6277124;28;20110;-74
2024/01/11 12:29:57;;;;;;;19.08;12.43;;;;;;;;;;6260806;28;20856;-74
2024/01/11 12:33:02;;;;;;;27.85;15.75;;;;;;;;;;6280459;28;20060;-75
2024/01/11 12:36:06;;;;;;;16.50;10.43;;;;;;;;;;6267945;28;20135;-75
2024/01/11 12:39:13;;;;;;;31.58;18.20;;;;;;;;;;6300496;28;20541;-75
2024/01/11 12:42:15;;;;;;;26.75;16.83;;;;;;;;;;6292188;28;20041;-75
2024/01/11 12:45:17;;;;;;;26.35;14.65;;;;;;;;;;6294570;28;20052;-74
2024/01/11 12:48:20;;;;;;;23.73;15.93;;;;;;;;;;6267248;28;20525;-74
2024/01/11 12:51:25;;;;;;;24.30;14.40;;;;;;;;;;6288357;28;20044;-74
2024/01/11 12:54:33;;;;;;;18.55;12.27;;;;;;;;;;6259088;28;20045;-76
2024/01/11 12:57:35;;;;;;;29.55;16.35;;;;;;;;;;6278642;28;20820;-76
2024/01/11 13:00:39;;;;;;;20.48;12.65;;;;;;;;;;6265408;28;20052;-75
2024/01/11 13:03:45;;;;;;;28.80;18.13;;;;;;;;;;6299673;28;20530;-77
2024/01/11 13:06:48;;;;;;;29.15;18.38;;;;;;;;;;6288322;28;20048;-75
2024/01/11 13:09:52;;;;;;;38.42;24.15;;;;;;;;;;6248577;28;20656;-74
2024/01/11 13:12:57;;;;;;;28.30;17.02;;;;;;;;;;6281384;28;20056;-75
2024/01/11 13:16:14;;;;;;;25.20;16.48;;;;;;;;;;6265522;28;20662;-75
2024/01/11 13:19:16;;;;;;;34.38;19.85;;;;;;;;;;6256457;28;20068;-76
2024/01/11 13:22:28;;;;;;;33.15;18.40;;;;;;;;;;6295482;28;20665;-74
2024/01/11 13:25:30;;;;;;;36.30;21.27;;;;;;;;;;6246994;28;20513;-74
2024/01/11 13:28:35;;;;;;;29.52;19.15;;;;;;;;;;6293433;28;20068;-74
2024/01/11 13:31:37;;;;;;;30.27;17.70;;;;;;;;;;6281036;28;20048;-75
2024/01/11 13:34:41;;;;;;;30.48;19.20;;;;;;;;;;6267353;28;20076;-74
2024/01/11 13:37:43;;;;;;;48.10;33.15;;;;;;;;;;6285187;28;20199;-75
2024/01/11 13:40:45;;;;;;;47.40;34.90;;;;;;;;;;6283038;28;20592;-75
2024/01/11 13:43:49;;;;;;;29.80;18.52;;;;;;;;;;6287186;28;20482;-75
2024/01/11 13:46:52;;;;;;;34.42;23.65;;;;;;;;;;6299860;28;20044;-76
2024/01/11 13:49:54;;;;;;;25.80;18.02;;;;;;;;;;6275759;28;20106;-76
2024/01/11 13:52:56;;;;;;;25.67;17.65;;;;;;;;;;6288759;28;20036;-74
2024/01/11 13:55:58;;;;;;;34.30;22.90;;;;;;;;;;6257643;28;20052;-75
2024/01/11 13:59:01;;;;;;;32.88;20.95;;;;;;;;;;6264285;28;20044;-75
2024/01/11 14:02:03;;;;;;;25.60;18.20;;;;;;;;;;6285666;28;20243;-76
2024/01/11 14:05:09;;;;;;;31.75;22.60;;;;;;;;;;6275244;28;20052;-76
2024/01/11 14:08:14;;;;;;;32.40;19.85;;;;;;;;;;6270124;28;20615;-75
2024/01/11 14:11:16;;;;;;;56.03;37.10;;;;;;;;;;6269476;28;20055;-75
2024/01/11 14:14:20;;;;;;;29.63;19.70;;;;;;;;;;6270183;28;20099;-76
2024/01/11 14:17:23;;;;;;;35.97;20.73;;;;;;;;;;6299235;28;20145;-75
2024/01/11 14:20:25;;;;;;;31.23;18.52;;;;;;;;;;6265855;28;20082;-75
2024/01/11 14:23:28;;;;;;;37.83;21.45;;;;;;;;;;6289709;28;20045;-75
2024/01/11 14:26:32;;;;;;;42.65;26.13;;;;;;;;;;6298125;28;20044;-75
2024/01/11 14:29:36;;;;;;;36.40;20.15;;;;;;;;;;6289625;28;20044;-75
2024/01/11 14:32:43;;;;;;;36.47;20.05;;;;;;;;;;6252278;28;20086;-76
2024/01/11 14:35:45;;;;;;;36.00;22.13;;;;;;;;;;6269757;28;20113;-75
2024/01/11 14:38:50;;;;;;;34.55;21.63;;;;;;;;;;6294743;28;20123;-76
2024/01/11 14:41:52;;;;;;;29.02;20.83;;;;;;;;;;6267452;28;20688;-76
2024/01/11 14:44:55;;;;;;;32.20;20.67;;;;;;;;;;6260501;28;20130;-76
2024/01/11 14:47:58;;;;;;;39.53;23.38;;;;;;;;;;6279380;28;20069;-76
2024/01/11 14:51:00;;;;;;;40.60;24.00;;;;;;;;;;6282467;28;20478;-75
2024/01/11 14:54:05;;;;;;;32.47;20.30;;;;;;;;;;6281412;28;20083;-76
2024/01/11 14:57:08;;;;;;;27.13;16.40;;;;;;;;;;6270430;28;20044;-77
2024/01/11 15:00:11;;;;;;;30.10;15.52;;;;;;;;;;6301505;28;20044;-76
2024/01/11 15:03:14;;;;;;;32.10;15.80;;;;;;;;;;6275060;28;20086;-76
2024/01/11 15:06:18;;;;;;;24.98;15.25;;;;;;;;;;6271247;28;20444;-75
2024/01/11 15:09:20;;;;;;;28.00;16.45;;;;;;;;;;6302382;28;20032;-78
2024/01/11 15:12:25;;;;;;;24.85;16.20;;;;;;;;;;6309182;28;20046;-76
2024/01/11 15:15:27;;;;;;;27.92;16.30;;;;;;;;;;6312002;28;20039;-77
2024/01/11 15:18:31;;;;;;;25.40;14.85;;;;;;;;;;6300244;28;20075;-76
2024/01/11 15:21:36;;;;;;;30.50;15.20;;;;;;;;;;6323353;28;20043;-76
2024/01/11 15:24:43;;;;;;;27.90;16.02;;;;;;;;;;6275869;28;20040;-76
2024/01/11 15:27:46;;;;;;;21.75;14.70;;;;;;;;;;6295225;28;20135;-75
2024/01/11 15:30:48;;;;;;;24.13;14.63;;;;;;;;;;6283812;28;20108;-76
2024/01/11 15:33:51;;;;;;;28.20;16.58;;;;;;;;;;6246788;28;20529;-75
2024/01/11 15:36:53;;;;;;;30.35;15.85;;;;;;;;;;6277599;28;20047;-77
2024/01/11 15:39:56;;;;;;;26.83;16.00;;;;;;;;;;6275688;28;20051;-77
2024/01/11 15:42:58;;;;;;;28.48;16.65;;;;;;;;;;6258671;28;20053;-75
2024/01/11 15:46:01;;;;;;;23.80;12.73;;;;;;;;;;6273337;28;20139;-75
2024/01/11 15:49:04;;;;;;;33.80;17.40;;;;;;;;;;6253857;28;20553;-76
2024/01/11 15:52:06;;;;;;;52.75;25.67;;;;;;;;;;6281867;28;20527;-76
2024/01/11 15:55:09;;;;;;;35.78;21.58;;;;;;;;;;6260040;28;20047;-76
2024/01/11 15:58:11;;;;;;;42.78;20.67;;;;;;;;;;6280609;28;20088;-74
2024/01/11 16:01:13;;;;;;;44.95;26.48;;;;;;;;;;6270985;28;20123;-76
2024/01/11 16:04:16;;;;;;;60.05;31.42;;;;;;;;;;6312950;28;20430;-77
2024/01/11 16:07:18;;;;;;;44.45;25.83;;;;;;;;;;6297756;28;20469;-76
2024/01/11 16:10:23;;;;;;;40.40;23.75;;;;;;;;;;6266064;28;20044;-77
2024/01/11 16:13:25;;;;;;;89.85;33.80;;;;;;;;;;6261144;28;20044;-77
2024/01/11 16:16:28;;;;;;;74.22;34.15;;;;;;;;;;6253258;28;20059;-77
2024/01/11 16:19:31;;;;;;;73.18;29.38;;;;;;;;;;6293194;28;20047;-76
2024/01/11 16:22:43;;;;;;;54.85;26.92;;;;;;;;;;6276717;28;20098;-76
2024/01/11 16:25:46;;;;;;;65.47;28.67;;;;;;;;;;6313971;28;20134;-77
2024/01/11 16:28:49;;;;;;;45.25;20.50;;;;;;;;;;6257633;28;20041;-76
2024/01/11 16:31:51;;;;;;;45.72;21.33;;;;;;;;;;6299636;28;20044;-76
2024/01/11 16:34:53;;;;;;;17.65;9.35;;;;;;;;;;6265051;28;20152;-76
2024/01/11 16:37:55;;;;;;;31.98;15.82;;;;;;;;;;6249609;28;20083;-76
2024/01/11 16:40:58;;;;;;;34.03;15.07;;;;;;;;;;6269638;28;20049;-77
2024/01/11 16:44:00;;;;;;;16.23;8.32;;;;;;;;;;6273705;28;20451;-76
2024/01/11 16:47:02;;;;;;;8.63;5.65;;;;;;;;;;6294664;28;20155;-77
2024/01/11 16:50:07;;;;;;;11.25;7.05;;;;;;;;;;6266794;28;20048;-77
2024/01/11 16:53:10;;;;;;;6.85;4.75;;;;;;;;;;6261110;28;20032;-76
2024/01/11 16:56:14;;;;;;;11.48;7.53;;;;;;;;;;6248271;28;20045;-77
2024/01/11 16:59:17;;;;;;;11.63;7.97;;;;;;;;;;6288140;28;20135;-77
2024/01/11 17:02:23;;;;;;;7.00;5.80;;;;;;;;;;6288024;28;20431;-76
2024/01/11 17:05:28;;;;;;;6.57;5.72;;;;;;;;;;6258363;28;20476;-76
2024/01/11 17:08:30;;;;;;;13.00;8.77;;;;;;;;;;6292715;28;20443;-77
2024/01/11 17:11:39;;;;;;;20.40;11.18;;;;;;;;;;6296153;28;20044;-77
2024/01/11 17:14:41;;;;;;;11.50;7.05;;;;;;;;;;6294273;28;20041;-77
2024/01/11 17:17:44;;;;;;;13.80;8.40;;;;;;;;;;6252403;28;20079;-77
2024/01/11 17:20:49;;;;;;;11.20;7.30;;;;;;;;;;6278846;28;20044;-76
2024/01/11 17:23:51;;;;;;;9.85;6.53;;;;;;;;;;6265553;28;20063;-76
2024/01/11 17:26:53;;;;;;;10.13;6.03;;;;;;;;;;6256354;28;20958;-77
2024/01/11 17:29:55;;;;;;;17.08;9.23;;;;;;;;;;6248609;28;20037;-77
2024/01/11 17:32:58;;;;;;;7.40;5.72;;;;;;;;;;6261436;28;20127;-77
2024/01/11 17:36:00;;;;;;;5.05;3.97;;;;;;;;;;6244073;28;20049;-77
2024/01/11 17:39:03;;;;;;;13.00;7.40;;;;;;;;;;6270028;28;20555;-77
2024/01/11 17:42:09;;;;;;;13.80;6.65;;;;;;;;;;6283920;28;20226;-77
2024/01/11 17:45:12;;;;;;;8.15;4.80;;;;;;;;;;6275649;28;20888;-76
2024/01/11 17:48:15;;;;;;;10.05;8.13;;;;;;;;;;6276752;28;20142;-77
2024/01/11 17:51:18;;;;;;;14.93;8.90;;;;;;;;;;6294563;28;20044;-77
2024/01/11 17:54:23;;;;;;;12.73;8.57;;;;;;;;;;6247200;28;20051;-78
2024/01/11 17:57:25;;;;;;;14.90;8.98;;;;;;;;;;6261785;28;20055;-77
2024/01/11 18:00:29;;;;;;;11.50;7.38;;;;;;;;;;6255354;28;20180;-77